EW7757 Weather Reports


Display with metric or nautical units.
time (UTC)temp
F
wind
direction
speed
MPH
gust
MPH
rain 1hr
in
rain 24hr
in
rain mn
in
humidity
%
barometer
mb
20231202090008 59 238 0.0 0.0 0.00 0.34 0.15 79 1006.7
20231202084508 60 236 0.0 0.0 0.00 0.34 0.15 78 1006.1
20231202083002 60 236 0.0 0.0 0.00 0.34 0.15 80 1005.8
20231202081503 60 236 0.0 0.0 0.00 0.34 0.15 83 1005.8
20231202080102 61 236 0.0 0.0 0.02 0.34 0.15 83 1005.7
20231202074623 60 239 0.0 0.0 0.04 0.34 0.15 88 1005.0
20231202073057 59 236 0.0 0.0 0.05 0.34 0.15 88 1005.0
20231202071556 59 236 0.0 0.0 0.05 0.34 0.15 87 1005.0
20231202070101 60 240 0.0 0.0 0.04 0.33 0.14 84 1005.4
20231202064553 61 239 0.0 0.0 0.01 0.30 0.11 78 1005.5
20231202063100 62 236 0.0 0.0 0.00 0.28 0.10 72 1004.8
20231202061553 63 236 0.0 0.0 0.00 0.28 0.10 69 1004.8
20231202060055 63 236 0.0 1.0 0.00 0.28 0.10 68 1004.3
20231202054558 65 237 0.0 9.0 0.00 0.28 0.10 66 1004.2
20231202053058 67 243 5.0 16.0 0.00 0.28 0.10 62 1003.7
20231202051605 68 262 6.0 17.0 0.00 0.28 0.10 58 1003.3
20231202050107 69 262 0.0 13.0 0.01 0.28 0.10 58 1003.0
20231202044608 73 254 2.0 12.0 0.01 0.28 0.10 57 1002.8
20231202043052 71 233 0.0 9.0 0.01 0.28 0.10 61 1002.8
20231202041607 69 229 0.0 2.0 0.07 0.28 0.10 72 1002.7
20231202040052 65 229 0.0 0.0 0.09 0.28 0.09 80 1002.8
20231202034603 63 229 0.0 0.0 0.09 0.28 0.09 80 1002.9
20231202033059 62 229 0.0 0.0 0.09 0.28 0.09 82 1003.3
20231202031558 66 231 1.0 12.0 0.08 0.27 0.08 75 1003.2
20231202030106 70 228 0.0 2.0 0.00 0.19 0.00 60 1002.8
20231202024547 72 229 0.0 0.0 0.00 0.19 0.00 55 1003.0
20231202023047 74 226 0.0 3.0 0.00 0.19 0.00 54 1003.1
20231202021543 72 224 0.0 10.0 0.00 0.19 0.00 58 1003.2
20231202020047 72 207 0.0 1.0 0.00 0.19 0.00 62 1003.3
20231202014553 70 206 0.0 3.0 0.00 0.19 0.00 63 1003.7
20231202013045 70 193 0.0 1.0 0.00 0.19 0.00 63 1003.9
20231202011542 69 162 0.0 0.0 0.00 0.19 0.00 74 1004.2
20231202010051 69 162 0.0 0.0 0.00 0.19 0.00 73 1004.3
20231202004526 68 162 0.0 0.0 0.00 0.19 0.00 76 1004.4
20231202003021 66 162 0.0 0.0 0.00 0.19 0.00 75 1004.5
20231202001524 64 162 0.0 0.0 0.00 0.19 0.00 81 1004.6
20231202000024 64 162 0.0 0.0 0.00 0.19 0.00 85 1004.9
20231201234512 63 162 0.0 0.0 0.00 0.19 0.00 85 1004.9
20231201233008 62 162 0.0 0.0 0.00 0.19 0.00 87 1005.1
20231201231505 61 162 0.0 0.0 0.00 0.19 0.00 89 1005.2
20231201230004 61 162 0.0 0.0 0.00 0.19 0.00 91 1005.2
20231201224507 60 162 0.0 0.0 0.00 0.19 0.00 92 1005.3
20231201223004 59 162 0.0 0.0 0.00 0.19 0.00 93 1005.2
20231201221503 58 162 0.0 0.0 0.00 0.19 0.00 93 1005.0
20231201220100 57 162 0.0 0.0 0.00 0.19 0.00 94 1005.2
20231201214507 57 180 0.0 0.0 0.00 0.19 0.00 94 1005.4
20231201213007 57 162 0.0 0.0 0.00 0.19 0.00 94 1005.3
20231201211506 57 162 0.0 0.0 0.00 0.19 0.00 94 1005.2
20231201210106 57 162 0.0 0.0 0.00 0.19 0.00 94 1004.9
20231201204552 57 162 0.0 0.0 0.00 0.19 0.00 94 1004.9
20231201203048 57 162 0.0 0.0 0.00 0.23 0.00 94 1004.7
20231201201624 57 162 0.0 0.0 0.00 0.23 0.00 94 1004.5
20231201200045 56 162 0.0 0.0 0.00 0.23 0.00 94 1004.4
20231201194544 56 162 0.0 0.0 0.00 0.23 0.00 94 1004.2
20231201193043 56 162 0.0 0.0 0.00 0.28 0.23 94 1004.0
20231201191540 56 162 0.0 0.0 0.00 0.28 0.23 94 1003.9
20231201190041 55 162 0.0 0.0 0.00 0.28 0.23 94 1003.5
20231201184539 55 162 0.0 0.0 0.00 0.28 0.23 94 1003.5
20231201183038 56 180 0.0 0.0 0.00 0.28 0.23 94 1003.2
20231201181551 56 162 0.0 0.0 0.00 0.28 0.23 94 1003.1
20231201180038 56 162 0.0 0.0 0.00 0.28 0.23 94 1003.1
20231201174542 56 162 0.0 0.0 0.00 0.28 0.23 94 1002.8
20231201173041 56 162 0.0 0.0 0.00 0.28 0.23 94 1002.7
20231201171548 56 162 0.0 0.0 0.00 0.28 0.23 94 1002.7
20231201170041 57 162 0.0 0.0 0.00 0.28 0.23 94 1002.6
20231201164536 57 162 0.0 0.0 0.00 0.28 0.23 94 1002.8
20231201163035 57 162 0.0 0.0 0.00 0.30 0.23 94 1002.8
20231201161537 57 162 0.0 0.0 0.00 0.30 0.23 94 1003.0
20231201160044 57 180 0.0 0.0 0.00 0.30 0.23 94 1003.0
20231201154534 57 180 0.0 0.0 0.00 0.30 0.23 94 1003.1
20231201153040 57 162 0.0 0.0 0.00 0.35 0.23 94 1003.0
20231201151542 57 162 0.0 0.0 0.00 0.35 0.23 94 1003.0
20231201150033 58 162 0.0 0.0 0.00 0.35 0.23 94 1003.4
20231201144533 58 162 0.0 0.0 0.00 0.35 0.23 94 1003.6
20231201143032 58 162 0.0 0.0 0.01 0.35 0.23 94 1003.5
20231201141530 58 162 0.0 0.0 0.01 0.35 0.23 94 1003.7
20231201140030 58 180 0.0 0.0 0.02 0.35 0.23 94 1003.6
20231201134533 58 162 0.0 0.0 0.03 0.35 0.23 94 1003.7
20231201133028 58 162 0.0 0.0 0.08 0.35 0.22 93 1003.6
20231201131534 58 180 0.0 0.0 0.09 0.35 0.22 93 1003.5
20231201130034 58 180 0.0 0.0 0.09 0.34 0.21 93 1003.5
20231201124534 58 162 0.0 0.0 0.07 0.32 0.20 93 1003.6
20231201123036 58 162 0.0 0.0 0.06 0.31 0.18 93 1003.7
20231201121537 58 162 0.0 0.0 0.02 0.25 0.13 93 1003.7
20231201120040 58 162 0.0 0.0 0.02 0.25 0.13 93 1003.4
20231201114535 59 162 0.0 0.0 0.02 0.25 0.13 93 1003.6
20231201113034 59 162 0.0 0.0 0.02 0.24 0.12 93 1003.5
20231201111606 59 162 0.0 0.0 0.01 0.24 0.11 93 1003.6
20231201110045 59 162 0.0 0.0 0.02 0.24 0.11 93 1003.6
20231201104548 59 162 0.0 0.0 0.03 0.24 0.11 93 1003.4
20231201103045 59 162 0.0 0.0 0.05 0.24 0.11 92 1003.0
20231201101533 59 162 0.0 0.0 0.04 0.23 0.10 92 1002.9
20231201100040 59 162 0.0 0.0 0.04 0.22 0.09 92 1002.9
20231201094531 59 162 0.0 0.0 0.03 0.20 0.08 91 1002.9
20231201093034 59 162 0.0 0.0 0.03 0.20 0.07 91 1002.4
20231201091530 60 162 0.0 0.0 0.02 0.19 0.06 90 1002.3